createdAt,value
2023-05-10T00:00:18.413Z,977.75
2023-05-10T00:01:18.113Z,977.75
2023-05-10T00:02:18.161Z,977.75
2023-05-10T00:03:18.187Z,977.75
2023-05-10T00:04:18.184Z,977.74
2023-05-10T00:05:18.065Z,977.72
2023-05-10T00:06:18.054Z,977.70
2023-05-10T00:07:18.086Z,977.70
2023-05-10T00:08:18.052Z,977.71
2023-05-10T00:09:18.079Z,977.69
2023-05-10T00:10:18.243Z,977.71
2023-05-10T00:11:18.017Z,977.71
2023-05-10T00:12:18.006Z,977.72
2023-05-10T00:13:18.065Z,977.72
2023-05-10T00:14:17.990Z,977.72
2023-05-10T00:15:18.014Z,977.74
2023-05-10T00:16:17.959Z,977.76
2023-05-10T00:17:17.939Z,977.75
2023-05-10T00:18:17.940Z,977.74
2023-05-10T00:19:17.924Z,977.72
2023-05-10T00:20:18.261Z,977.70
2023-05-10T00:21:18.318Z,977.71
2023-05-10T00:22:17.895Z,977.69
2023-05-10T00:23:17.912Z,977.69
2023-05-10T00:24:17.875Z,977.68
2023-05-10T00:25:17.874Z,977.67
2023-05-10T00:26:17.865Z,977.66
2023-05-10T00:27:17.861Z,977.66
2023-05-10T00:28:17.822Z,977.65
2023-05-10T00:29:17.813Z,977.65
2023-05-10T00:30:18.030Z,977.64
2023-05-10T00:31:17.808Z,977.64
2023-05-10T00:32:17.954Z,977.63
2023-05-10T00:33:17.786Z,977.62
2023-05-10T00:34:17.772Z,977.61
2023-05-10T00:35:17.802Z,977.60
2023-05-10T00:36:17.760Z,977.59
2023-05-10T00:37:17.757Z,977.59
2023-05-10T00:38:17.776Z,977.60
2023-05-10T00:39:17.728Z,977.59
2023-05-10T00:40:18.006Z,977.58
2023-05-10T00:41:17.690Z,977.58
2023-05-10T00:42:17.686Z,977.58
2023-05-10T00:43:17.672Z,977.58
2023-05-10T00:44:17.697Z,977.58
2023-05-10T00:45:17.678Z,977.58
2023-05-10T00:46:17.709Z,977.59
2023-05-10T00:47:17.646Z,977.58
2023-05-10T00:48:17.640Z,977.58
2023-05-10T00:49:17.637Z,977.57
2023-05-10T00:50:18.129Z,977.57
2023-05-10T00:51:17.599Z,977.56
2023-05-10T00:52:17.577Z,977.58
2023-05-10T00:53:17.567Z,977.55
2023-05-10T00:54:17.569Z,977.56
2023-05-10T00:55:17.552Z,977.54
2023-05-10T00:56:17.576Z,977.53
2023-05-10T00:57:17.550Z,977.53
2023-05-10T00:58:17.528Z,977.51
2023-05-10T00:59:17.539Z,977.51
2023-05-10T01:00:17.732Z,977.50
2023-05-10T01:01:17.556Z,977.50
2023-05-10T01:02:17.583Z,977.49
2023-05-10T01:03:17.536Z,977.49
2023-05-10T01:04:17.467Z,977.50
2023-05-10T01:05:17.517Z,977.51
2023-05-10T01:06:17.449Z,977.50
2023-05-10T01:07:17.433Z,977.50
2023-05-10T01:08:17.440Z,977.51
2023-05-10T01:09:17.416Z,977.51
2023-05-10T01:10:17.622Z,977.50
2023-05-10T01:11:17.389Z,977.49
2023-05-10T01:12:17.414Z,977.49
2023-05-10T01:13:17.424Z,977.49
2023-05-10T01:14:17.411Z,977.50
2023-05-10T01:15:17.353Z,977.50
2023-05-10T01:16:17.382Z,977.52
2023-05-10T01:17:17.357Z,977.51
2023-05-10T01:18:17.339Z,977.52
2023-05-10T01:19:17.304Z,977.53
2023-05-10T01:20:17.564Z,977.54
2023-05-10T01:21:17.299Z,977.54
2023-05-10T01:22:17.272Z,977.53
2023-05-10T01:23:17.278Z,977.56
2023-05-10T01:24:17.271Z,977.56
2023-05-10T01:25:17.262Z,977.54
2023-05-10T01:26:17.265Z,977.56
2023-05-10T01:27:17.251Z,977.55
2023-05-10T01:28:17.213Z,977.56
2023-05-10T01:29:17.217Z,977.56
2023-05-10T01:30:17.200Z,977.57
2023-05-10T01:31:17.272Z,977.59
2023-05-10T01:32:17.185Z,977.59
2023-05-10T01:33:17.189Z,977.59
2023-05-10T01:34:17.173Z,977.59
2023-05-10T01:35:17.166Z,977.60
2023-05-10T01:36:17.185Z,977.60
2023-05-10T01:37:17.145Z,977.61
2023-05-10T01:38:17.141Z,977.61
2023-05-10T01:39:17.124Z,977.62
2023-05-10T01:40:17.299Z,977.62
2023-05-10T01:41:17.067Z,977.63
2023-05-10T01:42:17.114Z,977.63
2023-05-10T01:43:17.092Z,977.64
2023-05-10T01:44:17.057Z,977.64
2023-05-10T01:45:17.047Z,977.64
2023-05-10T01:46:17.045Z,977.63
2023-05-10T01:47:17.027Z,977.63
2023-05-10T01:48:17.060Z,977.61
2023-05-10T01:49:17.014Z,977.59
2023-05-10T01:50:17.314Z,977.58
2023-05-10T01:51:16.989Z,977.58
2023-05-10T01:52:16.982Z,977.57
2023-05-10T01:53:16.947Z,977.56
2023-05-10T01:54:17.331Z,977.56
2023-05-10T01:55:16.939Z,977.55
2023-05-10T01:56:16.926Z,977.56
2023-05-10T01:57:16.918Z,977.55
2023-05-10T01:58:17.765Z,977.55
2023-05-10T01:59:16.917Z,977.55
2023-05-10T02:00:17.110Z,977.55
2023-05-10T02:01:16.939Z,977.56
2023-05-10T02:02:16.885Z,977.57
2023-05-10T02:03:17.066Z,977.57
2023-05-10T02:04:16.841Z,977.57
2023-05-10T02:05:16.860Z,977.58
2023-05-10T02:06:16.847Z,977.56
2023-05-10T02:07:16.834Z,977.57
2023-05-10T02:08:16.823Z,977.57
2023-05-10T02:09:16.785Z,977.59
2023-05-10T02:10:17.027Z,977.59
2023-05-10T02:11:16.776Z,977.59
2023-05-10T02:12:16.791Z,977.61
2023-05-10T02:13:16.834Z,977.61
2023-05-10T02:14:16.739Z,977.62
2023-05-10T02:15:16.730Z,977.63
2023-05-10T02:16:16.755Z,977.65
2023-05-10T02:17:16.730Z,977.70
2023-05-10T02:18:16.714Z,977.74
2023-05-10T02:19:16.717Z,977.83
2023-05-10T02:20:16.952Z,977.90
2023-05-10T02:21:16.696Z,978.02
2023-05-10T02:22:16.681Z,977.93
2023-05-10T02:23:16.679Z,978.03
2023-05-10T02:24:16.680Z,977.90
2023-05-10T02:25:16.637Z,977.90
2023-05-10T02:26:16.618Z,977.87
2023-05-10T02:27:16.623Z,977.90
2023-05-10T02:28:16.649Z,977.92
2023-05-10T02:29:16.609Z,977.89
2023-05-10T02:30:17.189Z,977.90
2023-05-10T02:31:16.587Z,977.93
2023-05-10T02:32:16.680Z,977.93
2023-05-10T02:33:16.549Z,977.94
2023-05-10T02:34:16.541Z,977.95
2023-05-10T02:35:16.542Z,977.94
2023-05-10T02:36:16.554Z,977.98
2023-05-10T02:37:16.522Z,977.95
2023-05-10T02:38:16.494Z,977.96
2023-05-10T02:39:16.500Z,977.95
2023-05-10T02:40:16.718Z,977.94
2023-05-10T02:41:16.473Z,977.94
2023-05-10T02:42:16.505Z,977.95
2023-05-10T02:43:16.468Z,977.95
2023-05-10T02:44:16.441Z,977.94
2023-05-10T02:45:16.498Z,977.94
2023-05-10T02:46:16.463Z,977.95
2023-05-10T02:47:16.417Z,977.94
2023-05-10T02:48:16.421Z,977.94
2023-05-10T02:49:16.392Z,977.95
2023-05-10T02:50:16.845Z,977.95
2023-05-10T02:51:16.379Z,977.94
2023-05-10T02:52:16.348Z,977.94
2023-05-10T02:53:16.342Z,977.95
2023-05-10T02:54:16.348Z,977.95
2023-05-10T02:55:16.336Z,977.95
2023-05-10T02:56:16.352Z,977.95
2023-05-10T02:57:16.365Z,977.94
2023-05-10T02:58:16.326Z,977.94
2023-05-10T02:59:16.294Z,977.93
2023-05-10T03:00:16.592Z,977.94
2023-05-10T03:01:16.310Z,977.94
2023-05-10T03:02:16.253Z,977.94
2023-05-10T03:03:16.244Z,977.95
2023-05-10T03:04:16.276Z,977.97
2023-05-10T03:05:16.256Z,977.99
2023-05-10T03:06:16.245Z,977.97
2023-05-10T03:07:16.218Z,978.00
2023-05-10T03:08:16.205Z,977.99
2023-05-10T03:09:16.287Z,977.97
2023-05-10T03:10:16.366Z,977.98
2023-05-10T03:11:16.198Z,977.97
2023-05-10T03:12:16.192Z,977.97
2023-05-10T03:13:16.286Z,977.96
2023-05-10T03:14:16.141Z,977.96
2023-05-10T03:15:16.152Z,977.97
2023-05-10T03:16:16.152Z,978.02
2023-05-10T03:17:16.147Z,977.98
2023-05-10T03:18:16.092Z,978.00
2023-05-10T03:19:16.098Z,977.98
2023-05-10T03:20:16.372Z,977.99
2023-05-10T03:21:16.084Z,978.00
2023-05-10T03:22:16.068Z,977.99
2023-05-10T03:23:16.061Z,977.98
2023-05-10T03:24:16.078Z,977.99
2023-05-10T03:25:16.033Z,978.01
2023-05-10T03:26:16.018Z,977.99
2023-05-10T03:27:16.024Z,977.98
2023-05-10T03:28:16.012Z,978.00
2023-05-10T03:29:15.986Z,978.01
2023-05-10T03:30:16.156Z,978.01
2023-05-10T03:31:15.994Z,978.04
2023-05-10T03:32:15.951Z,978.02
2023-05-10T03:33:15.957Z,978.05
2023-05-10T03:34:15.952Z,978.07
2023-05-10T03:35:15.934Z,978.08
2023-05-10T03:36:15.899Z,978.09
2023-05-10T03:37:15.904Z,978.09
2023-05-10T03:38:15.901Z,978.10
2023-05-10T03:39:15.903Z,978.12
2023-05-10T03:40:16.045Z,978.11
2023-05-10T03:41:15.850Z,978.12
2023-05-10T03:42:15.839Z,978.13
2023-05-10T03:43:15.836Z,978.14
2023-05-10T03:44:15.837Z,978.15
2023-05-10T03:45:15.871Z,978.17
2023-05-10T03:46:15.821Z,978.16
2023-05-10T03:47:15.819Z,978.19
2023-05-10T03:48:15.804Z,978.16
2023-05-10T03:49:15.803Z,978.17
2023-05-10T03:50:16.066Z,978.19
2023-05-10T03:51:15.796Z,978.18
2023-05-10T03:52:15.752Z,978.18
2023-05-10T03:53:15.728Z,978.20
2023-05-10T03:54:15.711Z,978.21
2023-05-10T03:55:15.726Z,978.21
2023-05-10T03:56:15.725Z,978.22
2023-05-10T03:57:15.696Z,978.22
2023-05-10T03:58:15.702Z,978.22
2023-05-10T03:59:15.663Z,978.21
2023-05-10T04:00:15.996Z,978.21
2023-05-10T04:01:15.686Z,978.21
2023-05-10T04:02:15.720Z,978.22
2023-05-10T04:03:15.762Z,978.22
2023-05-10T04:04:15.659Z,978.20
2023-05-10T04:05:15.646Z,978.22
2023-05-10T04:06:15.638Z,978.25
2023-05-10T04:07:15.610Z,978.25
2023-05-10T04:08:15.614Z,978.29
2023-05-10T04:09:15.569Z,978.31
2023-05-10T04:10:15.700Z,978.33
2023-05-10T04:11:15.570Z,978.36
2023-05-10T04:12:15.567Z,978.38
2023-05-10T04:13:15.541Z,978.39
2023-05-10T04:14:15.564Z,978.42
2023-05-10T04:15:15.501Z,978.41
2023-05-10T04:16:15.554Z,978.43
2023-05-10T04:17:15.522Z,978.43
2023-05-10T04:18:15.487Z,978.43
2023-05-10T04:19:15.500Z,978.44
2023-05-10T04:20:15.766Z,978.46
2023-05-10T04:21:15.499Z,978.48
2023-05-10T04:22:15.455Z,978.50
2023-05-10T04:23:15.441Z,978.50
2023-05-10T04:24:15.409Z,978.50
2023-05-10T04:25:15.437Z,978.49
2023-05-10T04:26:15.431Z,978.49
2023-05-10T04:27:15.381Z,978.48
2023-05-10T04:28:15.392Z,978.53
2023-05-10T04:29:15.365Z,978.51
2023-05-10T04:30:15.560Z,978.52
2023-05-10T04:31:15.403Z,978.55
2023-05-10T04:32:15.333Z,978.54
2023-05-10T04:33:15.365Z,978.53
2023-05-10T04:34:15.330Z,978.55
2023-05-10T04:35:15.307Z,978.56
2023-05-10T04:36:15.297Z,978.59
2023-05-10T04:37:15.319Z,978.58
2023-05-10T04:38:15.269Z,978.61
2023-05-10T04:39:15.265Z,978.63
2023-05-10T04:40:15.514Z,978.63
2023-05-10T04:41:15.256Z,978.62
2023-05-10T04:42:15.268Z,978.63
2023-05-10T04:43:15.222Z,978.63
2023-05-10T04:44:15.273Z,978.66
2023-05-10T04:45:15.203Z,978.68
2023-05-10T04:46:15.250Z,978.71
2023-05-10T04:47:15.205Z,978.73
2023-05-10T04:48:15.190Z,978.73
2023-05-10T04:49:15.156Z,978.73
2023-05-10T04:50:15.339Z,978.73
2023-05-10T04:51:15.151Z,978.75
2023-05-10T04:52:15.114Z,978.76
2023-05-10T04:53:15.987Z,978.76
2023-05-10T04:54:15.133Z,978.75
2023-05-10T04:55:15.099Z,978.78
2023-05-10T04:56:15.085Z,978.81
2023-05-10T04:57:15.094Z,978.82
2023-05-10T04:58:15.070Z,978.85
2023-05-10T04:59:15.071Z,978.85
2023-05-10T05:00:15.289Z,978.90
2023-05-10T05:01:15.085Z,978.88
2023-05-10T05:02:15.038Z,978.92
2023-05-10T05:03:15.113Z,978.95
2023-05-10T05:04:14.995Z,979.00
2023-05-10T05:05:15.020Z,978.97
2023-05-10T05:06:14.972Z,978.97
2023-05-10T05:07:14.965Z,979.02
2023-05-10T05:08:14.976Z,979.00
2023-05-10T05:09:14.962Z,979.01
2023-05-10T05:10:15.090Z,979.04
2023-05-10T05:11:14.971Z,979.03
2023-05-10T05:12:14.977Z,979.06
2023-05-10T05:13:14.944Z,979.06
2023-05-10T05:14:14.897Z,979.07
2023-05-10T05:15:14.892Z,979.08
2023-05-10T05:16:14.899Z,979.10
2023-05-10T05:17:14.889Z,979.10
2023-05-10T05:18:14.847Z,979.10
2023-05-10T05:19:14.845Z,979.10
2023-05-10T05:20:15.014Z,979.11
2023-05-10T05:21:14.839Z,979.14
2023-05-10T05:22:14.819Z,979.15
2023-05-10T05:23:14.858Z,979.15
2023-05-10T05:24:14.807Z,979.15
2023-05-10T05:25:14.792Z,979.17
2023-05-10T05:26:14.801Z,979.20
2023-05-10T05:27:14.780Z,979.22
2023-05-10T05:28:14.759Z,979.23
2023-05-10T05:29:14.779Z,979.24
2023-05-10T05:30:14.864Z,979.24
2023-05-10T05:31:14.855Z,979.24
2023-05-10T05:32:14.714Z,979.27
2023-05-10T05:33:14.711Z,979.27
2023-05-10T05:34:14.702Z,979.26
2023-05-10T05:35:14.779Z,979.24
2023-05-10T05:36:14.682Z,979.23
2023-05-10T05:37:14.681Z,979.23
2023-05-10T05:38:14.654Z,979.22
2023-05-10T05:39:14.660Z,979.21
2023-05-10T05:40:14.644Z,979.22
2023-05-10T05:41:14.636Z,979.23
2023-05-10T05:42:14.594Z,979.24
2023-05-10T05:43:14.629Z,979.26
2023-05-10T05:44:14.603Z,979.26
2023-05-10T05:45:15.019Z,979.27
2023-05-10T05:46:14.637Z,979.30
2023-05-10T05:47:14.609Z,979.30
2023-05-10T05:48:14.601Z,979.30
2023-05-10T05:49:14.600Z,979.29
2023-05-10T05:50:14.632Z,979.29
2023-05-10T05:51:14.528Z,979.30
2023-05-10T05:52:14.507Z,979.29
2023-05-10T05:53:14.538Z,979.32
2023-05-10T05:54:14.485Z,979.31
2023-05-10T05:55:14.561Z,979.31
2023-05-10T05:56:14.458Z,979.31
2023-05-10T05:57:14.457Z,979.34
2023-05-10T05:58:14.440Z,979.36
2023-05-10T05:59:14.925Z,979.39
2023-05-10T06:00:14.426Z,979.40
2023-05-10T06:01:14.455Z,979.40
2023-05-10T06:02:14.441Z,979.43
2023-05-10T06:03:14.471Z,979.45
2023-05-10T06:04:14.424Z,979.46
2023-05-10T06:05:14.580Z,979.49
2023-05-10T06:06:14.378Z,979.51
2023-05-10T06:07:14.373Z,979.54
2023-05-10T06:08:14.340Z,979.57
2023-05-10T06:09:14.331Z,979.55
2023-05-10T06:10:14.376Z,979.58
2023-05-10T06:11:14.343Z,979.62
2023-05-10T06:12:14.329Z,979.61
2023-05-10T06:13:14.350Z,979.61
2023-05-10T06:14:14.310Z,979.63
2023-05-10T06:15:14.409Z,979.64
2023-05-10T06:16:14.319Z,979.64
2023-05-10T06:17:14.247Z,979.65
2023-05-10T06:18:14.250Z,979.66
2023-05-10T06:19:14.245Z,979.67
2023-05-10T06:20:14.236Z,979.66
2023-05-10T06:21:14.212Z,979.68
2023-05-10T06:22:14.230Z,979.70
2023-05-10T06:23:14.266Z,979.70
2023-05-10T06:24:14.194Z,979.70
2023-05-10T06:25:14.272Z,979.71
2023-05-10T06:26:14.184Z,979.72
2023-05-10T06:27:14.200Z,979.72
2023-05-10T06:28:14.151Z,979.73
2023-05-10T06:29:14.163Z,979.75
2023-05-10T06:30:14.143Z,979.72
2023-05-10T06:31:14.173Z,979.71
2023-05-10T06:32:14.101Z,979.73
2023-05-10T06:33:14.121Z,979.74
2023-05-10T06:34:14.079Z,979.76
2023-05-10T06:35:14.147Z,979.76
2023-05-10T06:36:14.085Z,979.75
2023-05-10T06:37:14.047Z,979.76
2023-05-10T06:38:14.041Z,979.78
2023-05-10T06:39:14.052Z,979.78
2023-05-10T06:40:14.036Z,979.80
2023-05-10T06:41:14.019Z,979.80
2023-05-10T06:42:14.018Z,979.83
2023-05-10T06:43:14.011Z,979.83
2023-05-10T06:44:13.995Z,979.83
2023-05-10T06:45:14.000Z,979.82
2023-05-10T06:46:13.982Z,979.80
2023-05-10T06:47:13.946Z,979.81
2023-05-10T06:48:13.994Z,979.79
2023-05-10T06:49:13.927Z,979.80
2023-05-10T06:50:13.970Z,979.78
2023-05-10T06:51:13.907Z,979.79
2023-05-10T06:52:13.913Z,979.81
2023-05-10T06:53:13.901Z,979.84
2023-05-10T06:54:13.890Z,979.80
2023-05-10T06:55:13.931Z,979.82
2023-05-10T06:56:14.076Z,979.87
2023-05-10T06:57:27.666Z,979.81
2023-05-10T06:58:13.841Z,979.81
2023-05-10T06:59:13.890Z,979.83
2023-05-10T07:00:13.830Z,979.84
2023-05-10T07:01:13.883Z,979.85
2023-05-10T07:02:13.914Z,979.85
2023-05-10T07:03:13.858Z,979.85
2023-05-10T07:04:13.786Z,979.84
2023-05-10T07:05:13.760Z,979.82
2023-05-10T07:06:29.240Z,979.81
2023-05-10T07:07:13.763Z,979.83
2023-05-10T07:08:13.786Z,979.83
2023-05-10T07:09:13.723Z,979.82
2023-05-10T07:10:13.727Z,979.84
2023-05-10T07:11:13.721Z,979.87
2023-05-10T07:12:15.397Z,979.82
2023-05-10T07:13:13.785Z,979.83
2023-05-10T07:14:13.698Z,979.83
2023-05-10T07:15:13.667Z,979.82
2023-05-10T07:16:13.717Z,979.85
2023-05-10T07:17:13.742Z,979.85
2023-05-10T07:18:13.682Z,979.87
2023-05-10T07:19:13.649Z,979.89
2023-05-10T07:20:13.629Z,979.89
2023-05-10T07:21:13.728Z,979.90
2023-05-10T07:22:13.597Z,979.93
2023-05-10T07:23:13.581Z,979.93
2023-05-10T07:24:13.586Z,979.93
2023-05-10T07:25:13.603Z,979.93
2023-05-10T07:26:13.565Z,979.93
2023-05-10T07:27:13.563Z,979.94
2023-05-10T07:28:13.536Z,979.96
2023-05-10T07:29:13.533Z,979.95
2023-05-10T07:30:13.518Z,979.96
2023-05-10T07:31:13.506Z,979.97
2023-05-10T07:32:13.617Z,979.97
2023-05-10T07:33:13.527Z,979.99
2023-05-10T07:34:13.476Z,980.00
2023-05-10T07:35:13.481Z,980.01
2023-05-10T07:36:13.439Z,980.01
2023-05-10T07:37:13.436Z,980.06
2023-05-10T07:38:13.449Z,980.05
2023-05-10T07:39:18.672Z,980.07
2023-05-10T07:40:13.445Z,980.06
2023-05-10T07:41:13.389Z,980.07
2023-05-10T07:42:13.388Z,980.07
2023-05-10T07:43:13.372Z,980.07
2023-05-10T07:44:13.397Z,980.07
2023-05-10T07:45:13.373Z,980.08
2023-05-10T07:46:13.374Z,980.08
2023-05-10T07:47:13.353Z,980.09
2023-05-10T07:48:13.316Z,980.10
2023-05-10T07:49:13.315Z,980.10
2023-05-10T07:50:13.340Z,980.10
2023-05-10T07:51:13.281Z,980.10
2023-05-10T07:52:13.284Z,980.10
2023-05-10T07:53:13.279Z,980.10
2023-05-10T07:54:13.270Z,980.10
2023-05-10T07:55:13.270Z,980.11
2023-05-10T07:56:13.297Z,980.11
2023-05-10T07:57:13.236Z,980.12
2023-05-10T07:58:13.229Z,980.11
2023-05-10T07:59:13.222Z,980.12
2023-05-10T08:00:13.195Z,980.12
2023-05-10T08:01:13.179Z,980.13
2023-05-10T08:02:13.261Z,980.13
2023-05-10T08:03:13.308Z,980.14
2023-05-10T08:04:13.223Z,980.14
2023-05-10T08:05:13.151Z,980.16
2023-05-10T08:06:13.138Z,980.17
2023-05-10T08:07:13.137Z,980.17
2023-05-10T08:08:13.162Z,980.17
2023-05-10T08:09:13.109Z,980.18
2023-05-10T08:10:13.107Z,980.18
2023-05-10T08:11:13.122Z,980.19
2023-05-10T08:12:13.082Z,980.19
2023-05-10T08:13:13.080Z,980.19
2023-05-10T08:14:13.218Z,980.20
2023-05-10T08:15:13.058Z,980.20
2023-05-10T08:16:13.085Z,980.21
2023-05-10T08:17:13.014Z,980.23
2023-05-10T08:18:13.084Z,980.24
2023-05-10T08:19:13.039Z,980.26
2023-05-10T08:20:13.020Z,980.27
2023-05-10T08:21:12.986Z,980.28
2023-05-10T08:22:12.998Z,980.29
2023-05-10T08:23:13.008Z,980.29
2023-05-10T08:24:12.966Z,980.29
2023-05-10T08:25:12.959Z,980.30
2023-05-10T08:26:12.945Z,980.32
2023-05-10T08:27:12.941Z,980.35
2023-05-10T08:28:12.963Z,980.37
2023-05-10T08:29:12.931Z,980.37
2023-05-10T08:30:12.904Z,980.38
2023-05-10T08:31:12.898Z,980.39
2023-05-10T08:32:12.881Z,980.39
2023-05-10T08:33:12.923Z,980.39
2023-05-10T08:34:12.872Z,980.41
2023-05-10T08:35:12.846Z,980.45
2023-05-10T08:36:12.823Z,980.45
2023-05-10T08:37:12.814Z,980.44
2023-05-10T08:38:12.806Z,980.45
2023-05-10T08:39:19.466Z,980.48
2023-05-10T08:40:12.837Z,980.47
2023-05-10T08:41:12.776Z,980.55
2023-05-10T08:42:12.927Z,980.50
2023-05-10T08:43:12.775Z,980.53
2023-05-10T08:44:12.849Z,980.51
2023-05-10T08:45:12.778Z,980.53
2023-05-10T08:46:12.770Z,980.54
2023-05-10T08:47:12.818Z,980.55
2023-05-10T08:48:12.745Z,980.55
2023-05-10T08:49:12.687Z,980.58
2023-05-10T08:50:12.686Z,980.55
2023-05-10T08:51:12.704Z,980.55
2023-05-10T08:52:12.676Z,980.53
2023-05-10T08:53:12.684Z,980.54
2023-05-10T08:54:12.663Z,980.59
2023-05-10T08:55:12.649Z,980.57
2023-05-10T08:56:12.627Z,980.57
2023-05-10T08:57:12.617Z,980.58
2023-05-10T08:58:12.642Z,980.60
2023-05-10T08:59:12.581Z,980.68
2023-05-10T09:00:12.587Z,980.62
2023-05-10T09:01:12.621Z,980.64
2023-05-10T09:02:12.563Z,980.68
2023-05-10T09:03:12.575Z,980.70
2023-05-10T09:04:12.647Z,980.66
2023-05-10T09:05:12.618Z,980.66
2023-05-10T09:06:12.536Z,980.66
2023-05-10T09:07:12.513Z,980.67
2023-05-10T09:08:12.751Z,980.68
2023-05-10T09:09:12.510Z,980.68
2023-05-10T09:10:12.498Z,980.70
2023-05-10T09:11:12.481Z,980.72
2023-05-10T09:12:12.498Z,980.74
2023-05-10T09:13:12.457Z,980.74
2023-05-10T09:14:12.462Z,980.72
2023-05-10T09:15:12.446Z,980.77
2023-05-10T09:16:21.144Z,980.77
2023-05-10T09:17:12.416Z,980.79
2023-05-10T09:18:12.499Z,980.83
2023-05-10T09:19:12.883Z,980.82
2023-05-10T09:20:12.397Z,980.84
2023-05-10T09:21:12.393Z,980.84
2023-05-10T09:22:12.389Z,980.87
2023-05-10T09:23:12.356Z,980.88
2023-05-10T09:24:12.356Z,980.86
2023-05-10T09:25:12.348Z,980.86
2023-05-10T09:26:12.336Z,980.86
2023-05-10T09:27:12.321Z,980.88
2023-05-10T09:28:12.326Z,980.90
2023-05-10T09:29:12.304Z,980.91
2023-05-10T09:30:12.268Z,980.89
2023-05-10T09:31:12.334Z,980.93
2023-05-10T09:32:13.778Z,980.91
2023-05-10T09:33:12.264Z,980.94
2023-05-10T09:34:12.245Z,980.89
2023-05-10T09:35:12.251Z,980.89
2023-05-10T09:36:12.261Z,980.89
2023-05-10T09:37:12.278Z,980.93
2023-05-10T09:38:12.224Z,980.90
2023-05-10T09:39:12.176Z,980.92
2023-05-10T09:40:12.175Z,980.91
2023-05-10T09:41:12.169Z,980.90
2023-05-10T09:42:12.213Z,980.91
2023-05-10T09:43:12.208Z,980.91
2023-05-10T09:44:12.155Z,980.87
2023-05-10T09:45:12.160Z,980.86
2023-05-10T09:46:12.221Z,980.91
2023-05-10T09:47:12.121Z,980.88
2023-05-10T09:48:12.129Z,980.88
2023-05-10T09:49:12.122Z,980.91
2023-05-10T09:50:12.084Z,980.91
2023-05-10T09:51:12.071Z,980.94
2023-05-10T09:52:12.057Z,980.92
2023-05-10T09:53:12.044Z,980.95
2023-05-10T09:54:12.043Z,980.91
2023-05-10T09:55:12.061Z,980.94
2023-05-10T09:56:12.020Z,981.01
2023-05-10T09:57:12.021Z,980.99
2023-05-10T09:58:12.102Z,980.96
2023-05-10T09:59:11.996Z,980.99
2023-05-10T10:00:11.969Z,980.92
2023-05-10T10:01:12.006Z,980.96
2023-05-10T10:02:11.948Z,981.00
2023-05-10T10:03:11.949Z,981.01
2023-05-10T10:04:11.938Z,981.01
2023-05-10T10:05:12.062Z,981.04
2023-05-10T10:06:26.390Z,981.04
2023-05-10T10:07:11.937Z,981.03
2023-05-10T10:08:11.913Z,981.06
2023-05-10T10:09:11.908Z,981.09
2023-05-10T10:10:11.900Z,981.06
2023-05-10T10:11:11.879Z,981.09
2023-05-10T10:12:11.866Z,981.09
2023-05-10T10:13:11.872Z,981.09
2023-05-10T10:14:11.837Z,981.11
2023-05-10T10:15:11.834Z,981.13
2023-05-10T10:16:11.861Z,981.13
2023-05-10T10:17:11.819Z,981.16
2023-05-10T10:18:11.792Z,981.13
2023-05-10T10:19:11.800Z,981.13
2023-05-10T10:20:12.392Z,981.12
2023-05-10T10:21:11.747Z,981.12
2023-05-10T10:22:11.795Z,981.12
2023-05-10T10:23:11.747Z,981.13
2023-05-10T10:24:11.745Z,981.11
2023-05-10T10:25:11.716Z,981.14
2023-05-10T10:26:11.740Z,981.10
2023-05-10T10:27:11.721Z,981.10
2023-05-10T10:28:11.720Z,981.12
2023-05-10T10:29:11.683Z,981.12
2023-05-10T10:30:11.680Z,981.15
2023-05-10T10:31:11.725Z,981.15
2023-05-10T10:32:11.639Z,981.12
2023-05-10T10:33:24.316Z,981.09
2023-05-10T10:34:11.618Z,981.12
2023-05-10T10:35:11.611Z,981.12
2023-05-10T10:36:11.616Z,981.11
2023-05-10T10:37:11.596Z,981.11
2023-05-10T10:38:11.575Z,981.07
2023-05-10T10:39:11.994Z,981.07
2023-05-10T10:40:11.564Z,981.10
2023-05-10T10:41:11.557Z,981.08
2023-05-10T10:42:11.559Z,981.06
2023-05-10T10:43:11.543Z,981.03
2023-05-10T10:44:11.530Z,981.05
2023-05-10T10:45:11.546Z,980.99
2023-05-10T10:46:11.617Z,980.99
2023-05-10T10:47:11.724Z,980.99
2023-05-10T10:48:11.500Z,980.98
2023-05-10T10:49:11.489Z,981.01
2023-05-10T10:50:11.454Z,981.02
2023-05-10T10:51:12.893Z,981.01
2023-05-10T10:52:11.440Z,981.05
2023-05-10T10:53:11.459Z,981.01
2023-05-10T10:54:11.480Z,981.02
2023-05-10T10:55:11.433Z,981.03
2023-05-10T10:56:11.405Z,981.04
2023-05-10T10:57:11.427Z,981.06
2023-05-10T10:58:11.378Z,981.06
2023-05-10T10:59:11.385Z,981.03
2023-05-10T11:00:11.355Z,981.07
2023-05-10T11:01:11.413Z,981.07
2023-05-10T11:02:11.337Z,981.06
2023-05-10T11:03:11.429Z,981.06
2023-05-10T11:04:11.410Z,981.04
2023-05-10T11:05:11.320Z,981.02
2023-05-10T11:06:11.310Z,981.00
2023-05-10T11:07:11.299Z,981.00
2023-05-10T11:08:11.283Z,980.96
2023-05-10T11:09:11.323Z,980.96
2023-05-10T11:10:11.259Z,980.97
2023-05-10T11:11:11.260Z,980.99
2023-05-10T11:12:11.238Z,980.97
2023-05-10T11:13:11.214Z,980.97
2023-05-10T11:14:11.206Z,980.96
2023-05-10T11:15:11.228Z,980.99
2023-05-10T11:16:11.224Z,980.99
2023-05-10T11:17:11.195Z,980.97
2023-05-10T11:18:11.206Z,980.96
2023-05-10T11:19:11.198Z,980.96
2023-05-10T11:20:11.178Z,980.94
2023-05-10T11:21:11.176Z,980.93
2023-05-10T11:22:11.112Z,980.93
2023-05-10T11:23:11.128Z,980.91
2023-05-10T11:24:11.097Z,980.91
2023-05-10T11:25:11.138Z,980.92
2023-05-10T11:26:11.090Z,980.91
2023-05-10T11:27:11.361Z,980.91
2023-05-10T11:28:11.086Z,980.90
2023-05-10T11:29:11.055Z,980.91
2023-05-10T11:30:11.055Z,980.93
2023-05-10T11:31:11.076Z,980.91
2023-05-10T11:32:11.037Z,980.86
2023-05-10T11:33:11.061Z,980.87
2023-05-10T11:34:11.003Z,980.89
2023-05-10T11:35:11.010Z,980.89
2023-05-10T11:36:10.982Z,980.93
2023-05-10T11:37:10.975Z,980.90
2023-05-10T11:38:10.986Z,980.90
2023-05-10T11:39:10.991Z,980.92
2023-05-10T11:40:10.936Z,980.92
2023-05-10T11:41:10.945Z,980.93
2023-05-10T11:42:10.925Z,980.93
2023-05-10T11:43:10.920Z,980.89
2023-05-10T11:44:10.914Z,980.95
2023-05-10T11:45:11.310Z,980.91
2023-05-10T11:46:10.921Z,980.95
2023-05-10T11:47:10.881Z,980.91
2023-05-10T11:48:10.903Z,980.90
2023-05-10T11:49:10.888Z,980.87
2023-05-10T11:50:10.880Z,980.90
2023-05-10T11:51:10.868Z,980.88
2023-05-10T11:52:10.849Z,980.94
2023-05-10T11:53:10.818Z,980.84
2023-05-10T11:54:10.807Z,980.83
2023-05-10T11:55:10.816Z,980.93
2023-05-10T11:56:10.784Z,980.88
2023-05-10T11:57:10.808Z,980.86
2023-05-10T11:58:10.755Z,980.87
2023-05-10T11:59:10.746Z,980.87
2023-05-10T12:00:10.761Z,980.83
2023-05-10T12:01:10.832Z,980.81
2023-05-10T12:02:10.721Z,980.83
2023-05-10T12:03:10.818Z,980.83
2023-05-10T12:04:10.828Z,980.85
2023-05-10T12:05:10.728Z,980.89
2023-05-10T12:06:10.679Z,980.91
2023-05-10T12:07:10.672Z,980.89
2023-05-10T12:08:10.694Z,980.90
2023-05-10T12:09:10.698Z,980.90
2023-05-10T12:10:10.648Z,980.95
2023-05-10T12:11:10.643Z,980.93
2023-05-10T12:12:10.625Z,980.93
2023-05-10T12:13:10.624Z,980.96
2023-05-10T12:14:10.604Z,980.90
2023-05-10T12:15:10.637Z,980.90
2023-05-10T12:16:10.602Z,980.86
2023-05-10T12:17:10.569Z,980.86
2023-05-10T12:18:10.569Z,980.86
2023-05-10T12:19:10.595Z,980.84
2023-05-10T12:20:10.546Z,980.82
2023-05-10T12:21:10.660Z,980.82
2023-05-10T12:22:10.505Z,980.78
2023-05-10T12:23:10.596Z,980.78
2023-05-10T12:24:10.497Z,980.80
2023-05-10T12:25:10.501Z,980.83
2023-05-10T12:26:10.482Z,980.79
2023-05-10T12:27:10.487Z,980.79
2023-05-10T12:28:10.471Z,980.80